sensor_id;sensor_type;location;lat;lon;timestamp;pressure;altitude;pressure_sealevel;temperature;humidity
28310;BME280;15571;50.974;13.936;2022-08-04T00:02:01;100009.16;;;23.62;100.00
28310;BME280;15571;50.974;13.936;2022-08-04T00:05:16;100006.88;;;23.56;100.00
28310;BME280;15571;50.974;13.936;2022-08-04T00:08:34;100010.91;;;23.49;100.00
28310;BME280;15571;50.974;13.936;2022-08-04T00:11:48;100008.59;;;23.42;100.00
28310;BME280;15571;50.974;13.936;2022-08-04T00:14:55;99991.97;;;23.52;100.00
28310;BME280;15571;50.974;13.936;2022-08-04T00:18:04;100004.97;;;23.43;100.00
28310;BME280;15571;50.974;13.936;2022-08-04T00:21:11;100001.94;;;23.35;100.00
28310;BME280;15571;50.974;13.936;2022-08-04T00:24:16;100003.16;;;23.29;100.00
28310;BME280;15571;50.974;13.936;2022-08-04T00:27:22;100007.56;;;23.45;100.00
28310;BME280;15571;50.974;13.936;2022-08-04T00:30:26;100009.84;;;23.37;100.00
28310;BME280;15571;50.974;13.936;2022-08-04T00:33:30;100020.25;;;23.41;100.00
28310;BME280;15571;50.974;13.936;2022-08-04T00:36:36;100010.81;;;23.36;100.00
28310;BME280;15571;50.974;13.936;2022-08-04T00:39:42;100010.50;;;23.26;100.00
28310;BME280;15571;50.974;13.936;2022-08-04T00:42:53;100009.56;;;23.41;100.00
28310;BME280;15571;50.974;13.936;2022-08-04T00:46:43;100017.00;;;23.22;100.00
28310;BME280;15571;50.974;13.936;2022-08-04T00:50:08;100007.84;;;23.26;100.00
28310;BME280;15571;50.974;13.936;2022-08-04T00:53:30;100011.84;;;23.19;100.00
28310;BME280;15571;50.974;13.936;2022-08-04T00:57:02;100012.53;;;23.22;100.00
28310;BME280;15571;50.974;13.936;2022-08-04T01:00:14;100013.00;;;23.29;100.00
28310;BME280;15571;50.974;13.936;2022-08-04T01:03:29;100015.31;;;23.21;100.00
28310;BME280;15571;50.974;13.936;2022-08-04T01:06:41;100002.03;;;23.34;100.00
28310;BME280;15571;50.974;13.936;2022-08-04T01:09:56;100011.75;;;23.20;100.00
28310;BME280;15571;50.974;13.936;2022-08-04T01:13:25;100006.84;;;23.12;100.00
28310;BME280;15571;50.974;13.936;2022-08-04T01:16:40;100012.00;;;23.15;100.00
28310;BME280;15571;50.974;13.936;2022-08-04T01:20:01;100013.91;;;23.13;100.00
28310;BME280;15571;50.974;13.936;2022-08-04T01:23:39;100007.44;;;23.17;100.00
28310;BME280;15571;50.974;13.936;2022-08-04T01:26:56;100013.56;;;23.20;100.00
28310;BME280;15571;50.974;13.936;2022-08-04T01:30:12;100001.50;;;23.12;100.00
28310;BME280;15571;50.974;13.936;2022-08-04T01:33:17;100010.66;;;23.08;100.00
28310;BME280;15571;50.974;13.936;2022-08-04T01:41:14;100018.19;;;23.01;100.00
28310;BME280;15571;50.974;13.936;2022-08-04T01:44:23;100013.63;;;23.04;100.00
28310;BME280;15571;50.974;13.936;2022-08-04T01:47:35;100016.50;;;23.15;100.00
28310;BME280;15571;50.974;13.936;2022-08-04T01:50:43;100014.56;;;23.17;100.00
28310;BME280;15571;50.974;13.936;2022-08-04T01:53:53;100007.63;;;23.00;100.00
28310;BME280;15571;50.974;13.936;2022-08-04T02:10:40;99998.91;;;22.82;100.00
28310;BME280;15571;50.974;13.936;2022-08-04T02:13:53;100001.47;;;22.83;100.00
28310;BME280;15571;50.974;13.936;2022-08-04T02:17:01;100006.06;;;22.81;100.00
28310;BME280;15571;50.974;13.936;2022-08-04T02:20:11;100004.91;;;22.85;100.00
28310;BME280;15571;50.974;13.936;2022-08-04T02:23:29;100000.75;;;22.96;100.00
28310;BME280;15571;50.974;13.936;2022-08-04T02:26:34;99999.41;;;22.89;100.00
28310;BME280;15571;50.974;13.936;2022-08-04T02:29:51;99993.88;;;22.92;100.00
28310;BME280;15571;50.974;13.936;2022-08-04T02:33:03;100000.53;;;22.84;100.00
28310;BME280;15571;50.974;13.936;2022-08-04T02:36:10;99992.34;;;22.88;100.00
28310;BME280;15571;50.974;13.936;2022-08-04T02:39:18;99996.06;;;22.85;100.00
28310;BME280;15571;50.974;13.936;2022-08-04T02:42:32;99994.91;;;22.89;100.00
28310;BME280;15571;50.974;13.936;2022-08-04T02:45:36;99989.00;;;22.84;100.00
28310;BME280;15571;50.974;13.936;2022-08-04T02:48:42;99989.09;;;22.82;100.00
28310;BME280;15571;50.974;13.936;2022-08-04T02:51:49;99973.16;;;22.81;100.00
28310;BME280;15571;50.974;13.936;2022-08-04T02:54:58;99985.78;;;22.93;100.00
28310;BME280;15571;50.974;13.936;2022-08-04T02:58:03;99988.28;;;22.96;100.00
28310;BME280;15571;50.974;13.936;2022-08-04T03:01:13;99982.50;;;22.88;100.00
28310;BME280;15571;50.974;13.936;2022-08-04T03:04:26;99985.09;;;22.90;100.00
28310;BME280;15571;50.974;13.936;2022-08-04T03:07:58;99987.84;;;22.88;100.00
28310;BME280;15571;50.974;13.936;2022-08-04T03:15:17;99991.78;;;22.82;100.00
28310;BME280;15571;50.974;13.936;2022-08-04T03:22:48;99992.50;;;22.84;100.00
28310;BME280;15571;50.974;13.936;2022-08-04T03:26:25;100001.69;;;22.80;100.00
28310;BME280;15571;50.974;13.936;2022-08-04T03:29:59;99993.00;;;22.91;100.00
28310;BME280;15571;50.974;13.936;2022-08-04T03:33:35;99997.50;;;22.91;100.00
28310;BME280;15571;50.974;13.936;2022-08-04T03:37:26;99995.41;;;22.81;100.00
28310;BME280;15571;50.974;13.936;2022-08-04T03:40:51;99988.81;;;22.87;100.00
28310;BME280;15571;50.974;13.936;2022-08-04T03:44:30;99995.47;;;22.80;100.00
28310;BME280;15571;50.974;13.936;2022-08-04T03:51:26;100004.78;;;22.73;100.00
28310;BME280;15571;50.974;13.936;2022-08-04T03:55:30;100006.25;;;22.78;100.00
28310;BME280;15571;50.974;13.936;2022-08-04T03:59:17;100001.47;;;22.83;100.00
28310;BME280;15571;50.974;13.936;2022-08-04T04:06:44;100000.81;;;22.80;100.00
28310;BME280;15571;50.974;13.936;2022-08-04T04:10:07;100002.25;;;22.85;100.00
28310;BME280;15571;50.974;13.936;2022-08-04T04:13:35;100005.28;;;22.79;100.00
28310;BME280;15571;50.974;13.936;2022-08-04T04:17:08;100005.13;;;22.82;100.00
28310;BME280;15571;50.974;13.936;2022-08-04T04:24:04;100002.16;;;22.87;100.00
28310;BME280;15571;50.974;13.936;2022-08-04T04:27:23;100001.28;;;22.87;100.00
28310;BME280;15571;50.974;13.936;2022-08-04T04:30:38;100005.50;;;22.91;100.00
28310;BME280;15571;50.974;13.936;2022-08-04T04:34:05;100004.00;;;23.01;100.00
28310;BME280;15571;50.974;13.936;2022-08-04T04:37:20;100003.78;;;23.04;100.00
28310;BME280;15571;50.974;13.936;2022-08-04T04:40:42;100014.47;;;23.04;100.00
28310;BME280;15571;50.974;13.936;2022-08-04T04:47:34;100018.72;;;23.23;100.00
28310;BME280;15571;50.974;13.936;2022-08-04T04:51:04;100014.72;;;23.30;100.00
28310;BME280;15571;50.974;13.936;2022-08-04T04:54:23;100025.41;;;23.30;100.00
28310;BME280;15571;50.974;13.936;2022-08-04T04:57:33;100030.19;;;23.39;100.00
28310;BME280;15571;50.974;13.936;2022-08-04T05:01:03;100028.84;;;23.61;100.00
28310;BME280;15571;50.974;13.936;2022-08-04T05:15:06;100019.13;;;23.87;100.00
28310;BME280;15571;50.974;13.936;2022-08-04T05:18:13;100021.16;;;23.98;100.00
28310;BME280;15571;50.974;13.936;2022-08-04T05:21:29;100016.31;;;24.18;100.00
28310;BME280;15571;50.974;13.936;2022-08-04T05:24:38;100018.78;;;24.21;100.00
28310;BME280;15571;50.974;13.936;2022-08-04T05:27:48;100023.72;;;24.27;100.00
28310;BME280;15571;50.974;13.936;2022-08-04T05:30:59;100012.41;;;24.36;100.00
28310;BME280;15571;50.974;13.936;2022-08-04T05:34:08;100017.03;;;24.47;100.00
28310;BME280;15571;50.974;13.936;2022-08-04T05:37:14;100011.69;;;24.47;100.00
28310;BME280;15571;50.974;13.936;2022-08-04T05:40:18;100013.91;;;24.68;100.00
28310;BME280;15571;50.974;13.936;2022-08-04T05:43:22;100009.88;;;24.88;100.00
28310;BME280;15571;50.974;13.936;2022-08-04T05:46:36;100006.66;;;24.96;100.00
28310;BME280;15571;50.974;13.936;2022-08-04T05:49:43;100012.00;;;24.96;100.00
28310;BME280;15571;50.974;13.936;2022-08-04T05:52:49;100007.84;;;25.05;100.00
28310;BME280;15571;50.974;13.936;2022-08-04T05:55:54;100009.13;;;25.12;100.00
28310;BME280;15571;50.974;13.936;2022-08-04T05:58:58;100014.59;;;25.23;98.81
28310;BME280;15571;50.974;13.936;2022-08-04T06:02:06;100004.38;;;25.28;98.35
28310;BME280;15571;50.974;13.936;2022-08-04T06:05:10;100006.84;;;25.31;99.07
28310;BME280;15571;50.974;13.936;2022-08-04T06:08:14;100003.13;;;25.47;96.94
28310;BME280;15571;50.974;13.936;2022-08-04T06:11:52;100001.94;;;25.51;96.67
28310;BME280;15571;50.974;13.936;2022-08-04T06:14:58;100003.53;;;25.67;94.13
28310;BME280;15571;50.974;13.936;2022-08-04T06:18:06;100005.97;;;25.70;95.96
28310;BME280;15571;50.974;13.936;2022-08-04T06:21:10;100003.56;;;25.78;94.78
28310;BME280;15571;50.974;13.936;2022-08-04T06:24:19;100008.81;;;25.92;93.48
28310;BME280;15571;50.974;13.936;2022-08-04T06:27:22;100008.47;;;25.97;92.44
28310;BME280;15571;50.974;13.936;2022-08-04T06:30:27;100017.66;;;26.06;92.21
28310;BME280;15571;50.974;13.936;2022-08-04T06:33:34;100009.31;;;26.10;91.35
28310;BME280;15571;50.974;13.936;2022-08-04T06:36:43;100003.59;;;26.15;92.08
28310;BME280;15571;50.974;13.936;2022-08-04T06:39:47;100008.38;;;26.23;90.41
28310;BME280;15571;50.974;13.936;2022-08-04T06:42:54;100006.31;;;26.26;91.40
28310;BME280;15571;50.974;13.936;2022-08-04T06:45:58;99999.75;;;26.31;90.42
28310;BME280;15571;50.974;13.936;2022-08-04T06:49:05;100006.00;;;26.42;89.21
28310;BME280;15571;50.974;13.936;2022-08-04T06:52:08;100008.53;;;26.57;87.95
28310;BME280;15571;50.974;13.936;2022-08-04T06:55:11;100010.31;;;26.56;88.57
28310;BME280;15571;50.974;13.936;2022-08-04T06:58:15;100003.06;;;26.70;87.88
28310;BME280;15571;50.974;13.936;2022-08-04T07:01:19;100008.75;;;26.90;85.94
28310;BME280;15571;50.974;13.936;2022-08-04T07:04:24;100001.47;;;27.03;84.17
28310;BME280;15571;50.974;13.936;2022-08-04T07:07:27;100001.22;;;27.17;83.12
28310;BME280;15571;50.974;13.936;2022-08-04T07:10:30;100001.81;;;27.32;81.61
28310;BME280;15571;50.974;13.936;2022-08-04T07:13:35;100000.38;;;27.51;79.42
28310;BME280;15571;50.974;13.936;2022-08-04T07:16:39;99999.91;;;27.57;79.85
28310;BME280;15571;50.974;13.936;2022-08-04T07:19:44;99995.50;;;27.68;78.45
28310;BME280;15571;50.974;13.936;2022-08-04T07:22:48;99998.50;;;27.86;76.57
28310;BME280;15571;50.974;13.936;2022-08-04T07:25:54;99991.91;;;27.78;77.19
28310;BME280;15571;50.974;13.936;2022-08-04T07:29:04;99997.66;;;27.85;78.13
28310;BME280;15571;50.974;13.936;2022-08-04T07:32:07;99985.84;;;27.98;76.78
28310;BME280;15571;50.974;13.936;2022-08-04T07:35:13;99991.84;;;28.13;75.86
28310;BME280;15571;50.974;13.936;2022-08-04T07:38:16;99981.03;;;28.24;73.81
28310;BME280;15571;50.974;13.936;2022-08-04T07:41:21;99979.03;;;28.37;72.52
28310;BME280;15571;50.974;13.936;2022-08-04T07:44:24;99978.84;;;28.50;70.07
28310;BME280;15571;50.974;13.936;2022-08-04T07:47:28;99977.22;;;28.59;70.08
28310;BME280;15571;50.974;13.936;2022-08-04T07:50:37;99982.28;;;28.73;68.80
28310;BME280;15571;50.974;13.936;2022-08-04T07:53:59;99980.75;;;28.81;68.52
28310;BME280;15571;50.974;13.936;2022-08-04T07:57:10;99980.44;;;28.95;66.60
28310;BME280;15571;50.974;13.936;2022-08-04T08:00:13;99973.16;;;28.86;66.99
28310;BME280;15571;50.974;13.936;2022-08-04T08:03:16;99979.63;;;29.04;66.63
28310;BME280;15571;50.974;13.936;2022-08-04T08:06:22;99979.19;;;28.99;67.40
28310;BME280;15571;50.974;13.936;2022-08-04T08:09:25;99979.28;;;29.19;65.15
28310;BME280;15571;50.974;13.936;2022-08-04T08:12:32;99970.19;;;29.20;65.14
28310;BME280;15571;50.974;13.936;2022-08-04T08:15:38;99965.69;;;29.30;64.48
28310;BME280;15571;50.974;13.936;2022-08-04T08:18:41;99965.03;;;29.38;64.97
28310;BME280;15571;50.974;13.936;2022-08-04T08:21:47;99967.16;;;29.34;65.26
28310;BME280;15571;50.974;13.936;2022-08-04T08:24:50;99949.34;;;29.53;62.91
28310;BME280;15571;50.974;13.936;2022-08-04T08:27:53;99950.78;;;29.57;62.67
28310;BME280;15571;50.974;13.936;2022-08-04T08:30:56;99957.31;;;29.74;61.09
28310;BME280;15571;50.974;13.936;2022-08-04T08:34:01;99954.34;;;29.68;61.49
28310;BME280;15571;50.974;13.936;2022-08-04T08:37:14;99949.81;;;29.78;60.29
28310;BME280;15571;50.974;13.936;2022-08-04T08:40:28;99950.09;;;29.85;60.32
28310;BME280;15571;50.974;13.936;2022-08-04T08:43:49;99959.34;;;29.92;59.84
28310;BME280;15571;50.974;13.936;2022-08-04T08:47:13;99952.13;;;30.32;56.49
28310;BME280;15571;50.974;13.936;2022-08-04T08:50:37;99946.56;;;30.33;56.45
28310;BME280;15571;50.974;13.936;2022-08-04T08:54:14;99943.00;;;30.62;53.70
28310;BME280;15571;50.974;13.936;2022-08-04T08:57:45;99944.16;;;30.50;55.84
28310;BME280;15571;50.974;13.936;2022-08-04T09:00:59;99944.03;;;30.41;55.10
28310;BME280;15571;50.974;13.936;2022-08-04T09:08:00;99940.34;;;30.52;54.22
28310;BME280;15571;50.974;13.936;2022-08-04T09:11:12;99934.34;;;30.58;54.14
28310;BME280;15571;50.974;13.936;2022-08-04T09:14:20;99942.88;;;30.64;52.12
28310;BME280;15571;50.974;13.936;2022-08-04T09:17:28;99946.09;;;30.77;49.08
28310;BME280;15571;50.974;13.936;2022-08-04T09:20:38;99944.44;;;30.76;48.73
28310;BME280;15571;50.974;13.936;2022-08-04T09:23:48;99941.25;;;30.90;47.27
28310;BME280;15571;50.974;13.936;2022-08-04T09:26:57;99944.06;;;30.99;46.01
28310;BME280;15571;50.974;13.936;2022-08-04T09:30:11;99935.38;;;30.95;46.85
28310;BME280;15571;50.974;13.936;2022-08-04T09:33:27;99941.78;;;31.04;45.48
28310;BME280;15571;50.974;13.936;2022-08-04T09:36:38;99946.00;;;31.16;44.96
28310;BME280;15571;50.974;13.936;2022-08-04T09:39:58;99934.53;;;31.32;42.65
28310;BME280;15571;50.974;13.936;2022-08-04T09:43:14;99930.47;;;31.46;42.24
28310;BME280;15571;50.974;13.936;2022-08-04T09:46:24;99924.84;;;31.58;41.38
28310;BME280;15571;50.974;13.936;2022-08-04T09:49:32;99936.09;;;31.63;40.08
28310;BME280;15571;50.974;13.936;2022-08-04T09:52:45;99929.09;;;31.70;39.79
28310;BME280;15571;50.974;13.936;2022-08-04T09:55:57;99923.22;;;31.75;39.83
28310;BME280;15571;50.974;13.936;2022-08-04T09:59:16;99922.91;;;31.96;39.18
28310;BME280;15571;50.974;13.936;2022-08-04T10:02:23;99920.28;;;31.86;40.39
28310;BME280;15571;50.974;13.936;2022-08-04T10:05:43;99923.91;;;31.95;38.34
28310;BME280;15571;50.974;13.936;2022-08-04T10:09:07;99924.53;;;31.89;37.85
28310;BME280;15571;50.974;13.936;2022-08-04T10:12:40;99913.31;;;32.02;36.55
28310;BME280;15571;50.974;13.936;2022-08-04T10:15:55;99922.75;;;31.97;37.18
28310;BME280;15571;50.974;13.936;2022-08-04T10:19:11;99915.72;;;31.87;37.56
28310;BME280;15571;50.974;13.936;2022-08-04T10:22:20;99915.41;;;31.90;37.19
28310;BME280;15571;50.974;13.936;2022-08-04T10:25:40;99909.06;;;31.81;39.01
28310;BME280;15571;50.974;13.936;2022-08-04T10:28:52;99914.53;;;31.89;37.92
28310;BME280;15571;50.974;13.936;2022-08-04T10:32:06;99907.81;;;32.11;36.10
28310;BME280;15571;50.974;13.936;2022-08-04T10:35:13;99906.72;;;32.04;35.21
28310;BME280;15571;50.974;13.936;2022-08-04T10:38:24;99896.13;;;32.11;36.83
28310;BME280;15571;50.974;13.936;2022-08-04T10:41:37;99894.94;;;32.13;36.81
28310;BME280;15571;50.974;13.936;2022-08-04T10:44:54;99896.34;;;32.18;37.74
28310;BME280;15571;50.974;13.936;2022-08-04T10:48:06;99885.78;;;32.24;37.40
28310;BME280;15571;50.974;13.936;2022-08-04T10:51:22;99882.81;;;32.18;36.97
28310;BME280;15571;50.974;13.936;2022-08-04T10:54:37;99889.22;;;32.17;36.86
28310;BME280;15571;50.974;13.936;2022-08-04T10:57:47;99880.81;;;32.20;36.01
28310;BME280;15571;50.974;13.936;2022-08-04T11:00:54;99885.28;;;32.11;36.10
28310;BME280;15571;50.974;13.936;2022-08-04T11:04:02;99882.50;;;32.21;35.68
28310;BME280;15571;50.974;13.936;2022-08-04T11:07:06;99879.41;;;32.16;35.96
28310;BME280;15571;50.974;13.936;2022-08-04T11:10:14;99866.22;;;32.39;35.44
28310;BME280;15571;50.974;13.936;2022-08-04T11:13:21;99873.81;;;32.35;35.96
28310;BME280;15571;50.974;13.936;2022-08-04T11:16:38;99865.19;;;32.58;34.39
28310;BME280;15571;50.974;13.936;2022-08-04T11:19:47;99876.66;;;32.52;34.68
28310;BME280;15571;50.974;13.936;2022-08-04T11:23:00;99869.94;;;32.64;34.74
28310;BME280;15571;50.974;13.936;2022-08-04T11:26:10;99873.13;;;32.59;34.98
28310;BME280;15571;50.974;13.936;2022-08-04T11:29:21;99871.72;;;32.47;35.60
28310;BME280;15571;50.974;13.936;2022-08-04T11:32:29;99872.16;;;32.69;34.34
28310;BME280;15571;50.974;13.936;2022-08-04T11:35:41;99873.44;;;32.83;33.95
28310;BME280;15571;50.974;13.936;2022-08-04T11:38:49;99878.34;;;32.79;34.31
28310;BME280;15571;50.974;13.936;2022-08-04T11:41:59;99866.25;;;32.73;34.40
28310;BME280;15571;50.974;13.936;2022-08-04T11:45:05;99872.66;;;32.90;34.12
28310;BME280;15571;50.974;13.936;2022-08-04T11:48:16;99870.81;;;32.91;34.86
28310;BME280;15571;50.974;13.936;2022-08-04T11:51:25;99869.81;;;33.00;34.84
28310;BME280;15571;50.974;13.936;2022-08-04T11:54:30;99877.59;;;32.95;34.13
28310;BME280;15571;50.974;13.936;2022-08-04T11:57:35;99878.81;;;33.09;33.69
28310;BME280;15571;50.974;13.936;2022-08-04T12:00:41;99867.59;;;33.39;32.69
28310;BME280;15571;50.974;13.936;2022-08-04T12:03:59;99868.75;;;33.36;33.15
28310;BME280;15571;50.974;13.936;2022-08-04T12:07:13;99863.78;;;33.23;33.67
28310;BME280;15571;50.974;13.936;2022-08-04T12:10:29;99862.06;;;33.22;33.79
28310;BME280;15571;50.974;13.936;2022-08-04T12:13:42;99858.78;;;33.36;33.18
28310;BME280;15571;50.974;13.936;2022-08-04T12:16:55;99860.31;;;33.47;32.88
28310;BME280;15571;50.974;13.936;2022-08-04T12:20:03;99861.19;;;33.48;33.15
28310;BME280;15571;50.974;13.936;2022-08-04T12:23:16;99855.41;;;33.51;33.09
28310;BME280;15571;50.974;13.936;2022-08-04T12:26:26;99860.47;;;33.38;33.74
28310;BME280;15571;50.974;13.936;2022-08-04T12:29:32;99856.84;;;33.20;33.41
28310;BME280;15571;50.974;13.936;2022-08-04T12:32:40;99846.28;;;33.09;34.19
28310;BME280;15571;50.974;13.936;2022-08-04T12:35:47;99849.88;;;33.18;33.72
28310;BME280;15571;50.974;13.936;2022-08-04T12:38:58;99846.13;;;33.11;33.98
28310;BME280;15571;50.974;13.936;2022-08-04T12:42:06;99845.66;;;33.24;33.37
28310;BME280;15571;50.974;13.936;2022-08-04T12:45:18;99850.59;;;33.28;33.01
28310;BME280;15571;50.974;13.936;2022-08-04T12:48:24;99843.06;;;33.14;33.97
28310;BME280;15571;50.974;13.936;2022-08-04T12:51:36;99838.38;;;33.24;33.60
28310;BME280;15571;50.974;13.936;2022-08-04T12:54:45;99839.59;;;33.38;32.63
28310;BME280;15571;50.974;13.936;2022-08-04T12:57:55;99829.94;;;33.35;33.46
28310;BME280;15571;50.974;13.936;2022-08-04T13:01:01;99829.41;;;33.32;33.73
28310;BME280;15571;50.974;13.936;2022-08-04T13:04:11;99836.34;;;33.26;33.59
28310;BME280;15571;50.974;13.936;2022-08-04T13:07:19;99821.50;;;33.47;32.94
28310;BME280;15571;50.974;13.936;2022-08-04T13:10:25;99820.41;;;33.31;33.61
28310;BME280;15571;50.974;13.936;2022-08-04T13:13:32;99813.13;;;33.24;33.83
28310;BME280;15571;50.974;13.936;2022-08-04T13:16:36;99812.94;;;33.25;32.98
28310;BME280;15571;50.974;13.936;2022-08-04T13:19:47;99797.75;;;33.49;31.82
28310;BME280;15571;50.974;13.936;2022-08-04T13:22:58;99802.41;;;33.22;33.41
28310;BME280;15571;50.974;13.936;2022-08-04T13:26:03;99794.28;;;33.14;33.95
28310;BME280;15571;50.974;13.936;2022-08-04T13:29:12;99800.75;;;33.21;33.63
28310;BME280;15571;50.974;13.936;2022-08-04T13:32:24;99798.34;;;33.10;34.54
28310;BME280;15571;50.974;13.936;2022-08-04T13:35:30;99800.41;;;33.32;32.69
28310;BME280;15571;50.974;13.936;2022-08-04T13:38:39;99793.47;;;33.30;33.14
28310;BME280;15571;50.974;13.936;2022-08-04T13:41:51;99795.38;;;33.38;33.15
28310;BME280;15571;50.974;13.936;2022-08-04T13:44:59;99789.25;;;33.35;32.96
28310;BME280;15571;50.974;13.936;2022-08-04T13:48:05;99793.63;;;33.28;32.76
28310;BME280;15571;50.974;13.936;2022-08-04T13:51:16;99794.97;;;33.24;33.73
28310;BME280;15571;50.974;13.936;2022-08-04T13:54:20;99798.50;;;33.16;33.09
28310;BME280;15571;50.974;13.936;2022-08-04T13:57:29;99789.91;;;33.21;32.42
28310;BME280;15571;50.974;13.936;2022-08-04T14:00:41;99777.06;;;33.56;32.07
28310;BME280;15571;50.974;13.936;2022-08-04T14:03:56;99777.75;;;33.58;32.04
28310;BME280;15571;50.974;13.936;2022-08-04T14:07:04;99769.94;;;33.80;31.45
28310;BME280;15571;50.974;13.936;2022-08-04T14:10:10;99769.59;;;33.75;32.38
28310;BME280;15571;50.974;13.936;2022-08-04T14:13:28;99763.69;;;33.55;32.69
28310;BME280;15571;50.974;13.936;2022-08-04T14:16:57;99761.81;;;33.39;33.54
28310;BME280;15571;50.974;13.936;2022-08-04T14:20:03;99761.81;;;33.63;32.61
28310;BME280;15571;50.974;13.936;2022-08-04T14:23:09;99763.19;;;33.59;32.74
28310;BME280;15571;50.974;13.936;2022-08-04T14:26:15;99758.06;;;33.64;32.44
28310;BME280;15571;50.974;13.936;2022-08-04T14:29:21;99749.09;;;33.64;32.61
28310;BME280;15571;50.974;13.936;2022-08-04T14:32:28;99756.56;;;33.45;33.33
28310;BME280;15571;50.974;13.936;2022-08-04T14:35:39;99751.28;;;33.52;32.79
28310;BME280;15571;50.974;13.936;2022-08-04T14:38:52;99751.63;;;33.57;32.29
28310;BME280;15571;50.974;13.936;2022-08-04T14:41:56;99745.53;;;33.63;31.45
28310;BME280;15571;50.974;13.936;2022-08-04T14:45:09;99743.16;;;33.52;32.59
28310;BME280;15571;50.974;13.936;2022-08-04T14:48:14;99735.53;;;33.64;32.23
28310;BME280;15571;50.974;13.936;2022-08-04T14:51:19;99735.69;;;33.54;32.54
28310;BME280;15571;50.974;13.936;2022-08-04T14:54:27;99738.06;;;33.49;32.61
28310;BME280;15571;50.974;13.936;2022-08-04T14:57:35;99735.38;;;33.41;33.19
28310;BME280;15571;50.974;13.936;2022-08-04T15:00:43;99742.13;;;33.45;32.72
28310;BME280;15571;50.974;13.936;2022-08-04T15:03:48;99734.00;;;33.70;31.78
28310;BME280;15571;50.974;13.936;2022-08-04T15:06:53;99733.63;;;34.06;31.54
28310;BME280;15571;50.974;13.936;2022-08-04T15:10:01;99735.66;;;34.04;31.80
28310;BME280;15571;50.974;13.936;2022-08-04T15:13:06;99720.41;;;33.78;32.28
28310;BME280;15571;50.974;13.936;2022-08-04T15:16:15;99736.19;;;33.74;32.40
28310;BME280;15571;50.974;13.936;2022-08-04T15:19:22;99725.50;;;33.64;32.60
28310;BME280;15571;50.974;13.936;2022-08-04T15:22:25;99726.19;;;33.58;32.60
28310;BME280;15571;50.974;13.936;2022-08-04T15:25:32;99724.84;;;33.54;33.27
28310;BME280;15571;50.974;13.936;2022-08-04T15:28:39;99726.53;;;33.55;33.04
28310;BME280;15571;50.974;13.936;2022-08-04T15:31:48;99725.16;;;33.51;33.29
28310;BME280;15571;50.974;13.936;2022-08-04T15:34:52;99725.69;;;33.46;33.20
28310;BME280;15571;50.974;13.936;2022-08-04T15:38:07;99717.91;;;33.35;32.83
28310;BME280;15571;50.974;13.936;2022-08-04T15:41:18;99723.81;;;33.30;32.89
28310;BME280;15571;50.974;13.936;2022-08-04T15:44:54;99725.84;;;33.28;32.83
28310;BME280;15571;50.974;13.936;2022-08-04T15:48:24;99715.81;;;33.29;33.00
28310;BME280;15571;50.974;13.936;2022-08-04T15:51:34;99713.59;;;33.32;32.17
28310;BME280;15571;50.974;13.936;2022-08-04T15:54:42;99713.31;;;33.44;32.04
28310;BME280;15571;50.974;13.936;2022-08-04T15:58:00;99711.28;;;33.38;33.43
28310;BME280;15571;50.974;13.936;2022-08-04T16:01:16;99708.75;;;33.52;32.18
28310;BME280;15571;50.974;13.936;2022-08-04T16:04:25;99705.53;;;33.49;32.80
28310;BME280;15571;50.974;13.936;2022-08-04T16:07:51;99710.78;;;33.34;32.86
28310;BME280;15571;50.974;13.936;2022-08-04T16:10:56;99704.34;;;33.43;32.20
28310;BME280;15571;50.974;13.936;2022-08-04T16:14:09;99705.00;;;33.37;32.84
28310;BME280;15571;50.974;13.936;2022-08-04T16:53:33;99694.13;;;32.96;32.71
28310;BME280;15571;50.974;13.936;2022-08-04T16:56:41;99695.13;;;33.03;31.82
28310;BME280;15571;50.974;13.936;2022-08-04T16:59:49;99692.94;;;32.98;32.56
28310;BME280;15571;50.974;13.936;2022-08-04T17:02:54;99699.69;;;33.02;32.38
28310;BME280;15571;50.974;13.936;2022-08-04T17:06:05;99700.38;;;32.88;33.38
28310;BME280;15571;50.974;13.936;2022-08-04T17:09:14;99692.34;;;32.78;33.34
28310;BME280;15571;50.974;13.936;2022-08-04T17:12:27;99693.53;;;32.75;33.57
28310;BME280;15571;50.974;13.936;2022-08-04T17:15:32;99699.25;;;32.72;33.81
28310;BME280;15571;50.974;13.936;2022-08-04T17:18:41;99694.69;;;32.65;34.12
28310;BME280;15571;50.974;13.936;2022-08-04T17:21:46;99692.81;;;32.65;34.13
28310;BME280;15571;50.974;13.936;2022-08-04T17:24:53;99695.19;;;32.60;34.16
28310;BME280;15571;50.974;13.936;2022-08-04T17:28:04;99688.72;;;32.53;34.01
28310;BME280;15571;50.974;13.936;2022-08-04T17:31:10;99690.88;;;32.41;34.70
28310;BME280;15571;50.974;13.936;2022-08-04T17:34:18;99689.66;;;32.35;34.94
28310;BME280;15571;50.974;13.936;2022-08-04T17:37:24;99695.69;;;32.21;35.28
28310;BME280;15571;50.974;13.936;2022-08-04T17:40:30;99695.78;;;32.11;35.50
28310;BME280;15571;50.974;13.936;2022-08-04T17:43:42;99694.81;;;32.20;34.73
28310;BME280;15571;50.974;13.936;2022-08-04T17:46:46;99689.97;;;32.24;34.46
28310;BME280;15571;50.974;13.936;2022-08-04T17:49:51;99696.00;;;32.18;35.46
28310;BME280;15571;50.974;13.936;2022-08-04T17:53:00;99692.22;;;32.02;35.90
28310;BME280;15571;50.974;13.936;2022-08-04T17:56:06;99693.53;;;31.98;35.30
28310;BME280;15571;50.974;13.936;2022-08-04T17:59:40;99695.19;;;31.91;35.68
28310;BME280;15571;50.974;13.936;2022-08-04T18:02:52;99703.56;;;31.79;36.42
28310;BME280;15571;50.974;13.936;2022-08-04T18:06:10;99700.28;;;31.67;36.77